Time;durP1;ratioP1;P1;durP2;ratioP2;P2;SDS_P1;SDS_P2;PMS_P1;PMS_P2;Temp;Humidity;BMP_temperature;BMP_pressure;BME280_temperature;BME280_humidity;BME280_pressure;Samples;Min_cycle;Max_cycle;Signal;HPM_P1;HPM_P2
2022/10/26 00:00:06;;;;;;;6.63;5.07;;;11.70;99.90;;;;;;5074761;28;20017;-80
2022/10/26 00:02:32;;;;;;;6.85;5.57;;;11.70;99.90;;;;;;5074594;28;20086;-80
2022/10/26 00:04:57;;;;;;;13.00;6.22;;;11.70;99.90;;;;;;5074673;28;20008;-79
2022/10/26 00:07:23;;;;;;;9.13;6.28;;;11.70;99.90;;;;;;5075358;28;20028;-79
2022/10/26 00:09:48;;;;;;;8.02;6.60;;;11.70;99.90;;;;;;5074906;28;20020;-79
2022/10/26 00:12:14;;;;;;;9.50;6.47;;;11.70;99.90;;;;;;5095503;28;20055;-78
2022/10/26 00:14:39;;;;;;;10.60;5.90;;;11.80;99.90;;;;;;5080332;28;20040;-78
2022/10/26 00:17:05;;;;;;;12.75;6.03;;;11.80;99.90;;;;;;5075108;28;20039;-79
2022/10/26 00:19:34;;;;;;;10.98;6.10;;;11.70;99.90;;;;;;5074954;28;20404;-79
2022/10/26 00:21:59;;;;;;;10.25;6.00;;;11.70;99.90;;;;;;5064544;28;20053;-79
2022/10/26 00:24:25;;;;;;;6.50;5.85;;;11.70;99.90;;;;;;5055434;28;20028;-79
2022/10/26 00:26:51;;;;;;;12.25;6.32;;;11.60;99.90;;;;;;5060960;28;20078;-79
2022/10/26 00:29:17;;;;;;;11.88;6.40;;;11.70;99.90;;;;;;5075574;28;20404;-80
2022/10/26 00:31:43;;;;;;;7.43;6.65;;;11.60;99.90;;;;;;5063114;28;20370;-79
2022/10/26 00:34:10;;;;;;;8.18;6.25;;;11.60;99.90;;;;;;5074741;28;20051;-79
2022/10/26 00:36:35;;;;;;;10.43;6.70;;;11.60;99.90;;;;;;5075140;28;20581;-79
2022/10/26 00:39:01;;;;;;;9.60;7.00;;;11.60;99.90;;;;;;5064340;28;20124;-78
2022/10/26 00:41:30;;;;;;;10.73;7.38;;;11.60;99.90;;;;;;5071258;28;20373;-80
2022/10/26 00:43:56;;;;;;;11.70;7.22;;;11.60;99.90;;;;;;5074900;28;20044;-79
2022/10/26 00:46:30;;;;;;;12.63;7.75;;;11.70;99.90;;;;;;5074836;28;20093;-78
2022/10/26 00:49:00;;;;;;;14.02;7.25;;;11.60;99.90;;;;;;5080906;28;20434;-80
2022/10/26 00:51:51;;;;;;;14.25;7.32;;;11.70;99.90;;;;;;5087835;28;20023;-76
2022/10/26 00:54:19;;;;;;;9.68;6.78;;;11.70;99.90;;;;;;5089410;28;20059;-79
2022/10/26 00:56:47;;;;;;;12.18;7.53;;;11.70;99.90;;;;;;5088270;28;20048;-78
2022/10/26 00:59:14;;;;;;;14.75;7.18;;;11.70;99.90;;;;;;5083169;28;20388;-79
2022/10/26 01:01:42;;;;;;;13.63;7.43;;;11.70;99.90;;;;;;5077973;28;20013;-79
2022/10/26 01:04:08;;;;;;;10.93;7.15;;;11.70;99.90;;;;;;5094482;28;20097;-79
2022/10/26 01:06:36;;;;;;;17.50;8.30;;;11.70;99.90;;;;;;5074578;28;20532;-79
2022/10/26 01:09:02;;;;;;;13.35;7.75;;;11.70;99.90;;;;;;5074430;28;20021;-79
2022/10/26 01:11:28;;;;;;;12.73;6.80;;;11.80;99.90;;;;;;5074334;28;20603;-79
2022/10/26 01:13:55;;;;;;;11.00;7.28;;;11.70;99.90;;;;;;5074734;28;20048;-79
2022/10/26 01:16:51;;;;;;;13.77;7.22;;;11.80;99.90;;;;;;5074841;28;20029;-80
2022/10/26 01:19:22;;;;;;;9.95;7.38;;;11.80;99.90;;;;;;5060481;28;20070;-78
2022/10/26 01:22:10;;;;;;;8.88;7.50;;;11.70;99.90;;;;;;5074551;28;20041;-78
2022/10/26 01:24:45;;;;;;;7.90;7.10;;;11.70;99.90;;;;;;5077538;28;20036;-80
2022/10/26 01:27:36;;;;;;;14.10;7.65;;;11.70;99.90;;;;;;5077712;28;20024;-81
2022/10/26 01:30:23;;;;;;;;;;;11.60;99.90;;;;;;5078211;28;20037;-80
2022/10/26 01:33:23;;;;;;;9.35;7.88;;;11.60;99.90;;;;;;5073353;28;19911;-80
2022/10/26 01:36:07;;;;;;;10.43;8.48;;;11.60;99.90;;;;;;5073516;28;20048;-79
2022/10/26 01:38:59;;;;;;;13.43;8.50;;;11.60;99.90;;;;;;5063659;28;20053;-80
2022/10/26 01:41:49;;;;;;;16.17;9.57;;;11.60;99.90;;;;;;5079318;28;20017;-79
2022/10/26 01:44:27;;;;;;;12.45;8.57;;;11.60;99.90;;;;;;5080643;28;20036;-79
2022/10/26 01:46:54;;;;;;;15.90;9.52;;;11.90;99.90;;;;;;5084670;28;20102;-79
2022/10/26 01:49:37;;;;;;;15.63;9.38;;;11.60;99.90;;;;;;5091389;28;20032;-79
2022/10/26 01:52:03;;;;;;;10.13;8.90;;;11.70;99.90;;;;;;5094921;28;20012;-80
2022/10/26 01:54:30;;;;;;;12.23;9.07;;;11.70;99.90;;;;;;5094515;28;20027;-79
2022/10/26 01:57:01;;;;;;;11.63;8.38;;;11.70;99.90;;;;;;5090973;28;20036;-80
2022/10/26 01:59:50;;;;;;;14.18;8.85;;;11.70;99.90;;;;;;5079556;28;20021;-80
2022/10/26 02:02:46;;;;;;;11.93;8.73;;;11.70;99.90;;;;;;5081249;28;20074;-80
2022/10/26 02:05:45;;;;;;;10.40;8.65;;;10.90;99.90;;;;;;5091532;28;20271;-80
2022/10/26 02:08:18;;;;;;;13.13;8.82;;;11.70;99.90;;;;;;5084470;28;20036;-80
2022/10/26 02:11:22;;;;;;;10.80;8.80;;;11.70;99.90;;;;;;5084810;28;20028;-79
2022/10/26 02:14:06;;;;;;;10.60;9.02;;;11.80;99.90;;;;;;5084660;28;20079;-79
2022/10/26 02:16:52;;;;;;;11.75;8.57;;;11.80;99.90;;;;;;5084879;28;20039;-79
2022/10/26 02:19:26;;;;;;;14.15;8.75;;;11.80;99.90;;;;;;5081297;28;20067;-79
2022/10/26 02:22:02;;;;;;;12.52;9.40;;;11.80;99.90;;;;;;5073589;28;20064;-80
2022/10/26 02:24:30;;;;;;;12.70;8.52;;;11.80;99.90;;;;;;5073977;28;20024;-81
2022/10/26 02:26:58;;;;;;;15.13;9.82;;;11.70;99.90;;;;;;5072634;28;20045;-79
2022/10/26 02:29:26;;;;;;;11.38;8.90;;;11.70;99.90;;;;;;5068741;28;20032;-80
2022/10/26 02:31:52;;;;;;;11.88;8.40;;;11.70;99.90;;;;;;5063470;28;20507;-80
2022/10/26 02:34:23;;;;;;;12.38;8.77;;;11.70;99.90;;;;;;5072153;28;20035;-79
2022/10/26 02:36:52;;;;;;;10.43;7.65;;;11.70;99.90;;;;;;5054774;28;20020;-79
2022/10/26 02:39:19;;;;;;;11.57;8.27;;;11.70;99.90;;;;;;5072837;28;20071;-80
2022/10/26 02:41:47;;;;;;;10.18;7.50;;;11.70;99.90;;;;;;5071964;28;20021;-80
2022/10/26 02:44:16;;;;;;;10.43;7.93;;;11.70;99.90;;;;;;5074535;28;20032;-79
2022/10/26 02:46:42;;;;;;;9.70;8.27;;;11.70;99.90;;;;;;5076583;28;20022;-79
2022/10/26 02:49:08;;;;;;;10.27;7.78;;;11.70;99.90;;;;;;5077653;28;20082;-79
2022/10/26 02:51:43;;;;;;;8.48;7.05;;;11.70;99.90;;;;;;5089012;28;20020;-79
2022/10/26 02:54:25;;;;;;;10.23;7.43;;;11.70;99.90;;;;;;5087829;28;20031;-79
2022/10/26 02:56:56;;;;;;;10.32;7.80;;;11.70;99.90;;;;;;5077243;28;20025;-79
2022/10/26 02:59:28;;;;;;;8.40;6.63;;;11.80;99.90;;;;;;5076690;28;20028;-79
2022/10/26 03:01:54;;;;;;;11.65;7.80;;;11.80;99.90;;;;;;5075254;28;20484;-79
2022/10/26 03:04:26;;;;;;;10.35;7.20;;;11.80;99.90;;;;;;5076675;28;20031;-79
2022/10/26 03:06:53;;;;;;;12.35;7.13;;;11.80;99.90;;;;;;5076151;28;20016;-79
2022/10/26 03:09:19;;;;;;;9.65;6.32;;;11.80;99.90;;;;;;5064686;28;20028;-79
2022/10/26 03:11:44;;;;;;;14.02;7.10;;;11.80;99.90;;;;;;5072749;28;20017;-78
2022/10/26 03:14:10;;;;;;;7.80;6.20;;;12.40;99.90;;;;;;5076400;28;20103;-79
2022/10/26 03:16:35;;;;;;;8.50;6.80;;;11.80;99.90;;;;;;5075301;28;20033;-79
2022/10/26 03:19:01;;;;;;;10.40;7.15;;;11.80;99.90;;;;;;5076122;28;20032;-79
2022/10/26 03:21:27;;;;;;;13.75;7.40;;;11.80;99.90;;;;;;5076149;28;20020;-77
2022/10/26 03:23:53;;;;;;;9.43;6.15;;;11.80;99.90;;;;;;5074813;28;20041;-80
2022/10/26 03:26:19;;;;;;;12.77;6.68;;;11.80;99.90;;;;;;5077003;28;20067;-80
2022/10/26 03:28:45;;;;;;;10.80;6.38;;;11.80;99.90;;;;;;5076537;28;20021;-80
2022/10/26 03:31:10;;;;;;;7.93;6.28;;;11.90;99.90;;;;;;5062365;28;20066;-79
2022/10/26 03:33:36;;;;;;;18.30;6.57;;;11.90;99.90;;;;;;5076153;28;20477;-79
2022/10/26 03:36:01;;;;;;;9.77;6.47;;;11.80;99.90;;;;;;5076489;28;20388;-79
2022/10/26 03:38:29;;;;;;;9.48;6.70;;;11.80;99.90;;;;;;5077037;28;20028;-79
2022/10/26 03:40:55;;;;;;;10.32;6.80;;;11.80;99.90;;;;;;5078233;28;20086;-78
2022/10/26 03:43:20;;;;;;;9.35;6.60;;;11.80;99.90;;;;;;5065925;28;20032;-78
2022/10/26 03:45:46;;;;;;;6.72;5.88;;;11.80;99.90;;;;;;5076295;28;20025;-78
2022/10/26 03:48:12;;;;;;;8.40;6.85;;;11.80;99.90;;;;;;5076574;28;20017;-78
2022/10/26 03:50:37;;;;;;;9.93;5.30;;;11.80;99.90;;;;;;5075757;28;20096;-78
2022/10/26 03:53:03;;;;;;;12.10;7.13;;;11.80;99.90;;;;;;5075413;28;20024;-77
2022/10/26 03:55:29;;;;;;;14.10;7.07;;;11.80;99.90;;;;;;5076783;28;20012;-78
2022/10/26 03:57:54;;;;;;;13.13;7.30;;;11.90;99.90;;;;;;5074808;28;20380;-79
2022/10/26 04:00:20;;;;;;;16.98;6.53;;;11.90;99.90;;;;;;5075912;28;20017;-77
2022/10/26 04:02:53;;;;;;;9.73;6.28;;;11.80;99.90;;;;;;5075484;28;20029;-78
2022/10/26 04:05:19;;;;;;;13.20;7.13;;;11.90;99.90;;;;;;5075303;28;20021;-78
2022/10/26 04:07:51;;;;;;;9.35;6.40;;;11.90;99.90;;;;;;5082523;28;20032;-77
2022/10/26 04:10:17;;;;;;;14.07;6.47;;;11.90;99.90;;;;;;5074572;28;20031;-78
2022/10/26 04:12:43;;;;;;;12.77;5.93;;;11.90;99.90;;;;;;5073898;28;20032;-78
2022/10/26 04:15:09;;;;;;;10.75;6.43;;;12.00;99.90;;;;;;5074632;28;20009;-78
2022/10/26 04:17:34;;;;;;;14.95;7.78;;;11.90;99.90;;;;;;5074414;28;20055;-78
2022/10/26 04:20:00;;;;;;;16.33;6.97;;;12.00;99.90;;;;;;5073929;28;20052;-77
2022/10/26 04:22:25;;;;;;;8.40;7.35;;;12.00;99.90;;;;;;5074377;28;20485;-79
2022/10/26 04:24:51;;;;;;;10.65;6.90;;;11.90;99.90;;;;;;5074776;28;20020;-77
2022/10/26 04:27:16;;;;;;;11.55;7.10;;;12.00;99.90;;;;;;5074682;28;20350;-78
2022/10/26 04:29:42;;;;;;;10.30;7.03;;;12.00;99.90;;;;;;5076301;28;20036;-77
2022/10/26 04:32:08;;;;;;;9.23;6.55;;;12.00;99.90;;;;;;5083277;28;20036;-79
2022/10/26 04:34:33;;;;;;;13.40;7.82;;;12.00;99.90;;;;;;5084829;28;20028;-78
2022/10/26 04:36:59;;;;;;;10.20;7.15;;;12.00;99.90;;;;;;5087795;28;20038;-78
2022/10/26 04:39:25;;;;;;;7.30;6.43;;;12.00;99.90;;;;;;5088629;28;20466;-78
2022/10/26 04:41:52;;;;;;;14.23;7.65;;;11.90;99.90;;;;;;5089612;28;20025;-78
2022/10/26 04:44:17;;;;;;;11.25;7.50;;;12.00;99.90;;;;;;5076173;28;20039;-79
2022/10/26 04:46:43;;;;;;;13.30;6.65;;;12.00;99.90;;;;;;5073464;28;20032;-78
2022/10/26 04:49:09;;;;;;;12.23;7.22;;;12.00;99.90;;;;;;5074031;28;20035;-77
2022/10/26 04:51:34;;;;;;;10.20;6.75;;;12.00;99.90;;;;;;5073486;28;20384;-78
2022/10/26 04:54:00;;;;;;;13.35;6.85;;;12.00;99.90;;;;;;5074732;28;20108;-78
2022/10/26 04:56:26;;;;;;;12.18;6.63;;;12.00;99.90;;;;;;5074363;28;20033;-78
2022/10/26 04:58:54;;;;;;;14.23;6.90;;;12.00;99.90;;;;;;5074726;28;20023;-76
2022/10/26 05:01:20;;;;;;;10.68;6.45;;;12.00;99.90;;;;;;5073717;28;20025;-79
2022/10/26 05:03:51;;;;;;;10.05;6.75;;;12.00;99.90;;;;;;5087430;28;20047;-79
2022/10/26 05:06:16;;;;;;;10.30;6.05;;;12.00;99.90;;;;;;5089683;28;20025;-77
2022/10/26 05:08:42;;;;;;;11.98;6.55;;;12.10;99.90;;;;;;5073926;28;20036;-78
2022/10/26 05:11:07;;;;;;;10.07;6.68;;;12.10;99.90;;;;;;5074381;28;20024;-77
2022/10/26 05:13:33;;;;;;;12.88;5.95;;;12.10;99.90;;;;;;5074138;28;20089;-78
2022/10/26 05:15:58;;;;;;;10.43;6.22;;;12.20;99.90;;;;;;5075235;28;20465;-77
2022/10/26 05:18:25;;;;;;;26.90;7.75;;;12.20;99.90;;;;;;5074584;28;20483;-79
2022/10/26 05:20:54;;;;;;;7.88;6.47;;;12.20;99.90;;;;;;5075317;28;20138;-79
2022/10/26 05:23:19;;;;;;;11.88;6.07;;;12.20;99.90;;;;;;5073136;28;20400;-77
2022/10/26 05:25:46;;;;;;;11.65;6.25;;;12.20;99.90;;;;;;5061724;28;20032;-79
2022/10/26 05:28:13;;;;;;;10.77;6.00;;;12.30;99.90;;;;;;5055681;28;20117;-79
2022/10/26 05:30:40;;;;;;;11.18;5.72;;;12.30;99.90;;;;;;5053691;28;20436;-79
2022/10/26 05:33:07;;;;;;;9.93;6.18;;;12.30;99.90;;;;;;5058267;28;20021;-79
2022/10/26 05:35:32;;;;;;;17.58;6.45;;;12.30;99.90;;;;;;5062518;28;20021;-79
2022/10/26 05:37:59;;;;;;;8.63;5.65;;;12.30;99.90;;;;;;5061762;28;20428;-78
2022/10/26 05:40:24;;;;;;;7.10;5.10;;;12.40;99.90;;;;;;5055302;28;20025;-78
2022/10/26 05:42:50;;;;;;;8.10;5.07;;;12.30;99.90;;;;;;5056515;28;20074;-77
2022/10/26 05:45:17;;;;;;;9.07;4.95;;;12.40;99.90;;;;;;5071880;28;20016;-79
2022/10/26 05:47:44;;;;;;;13.23;4.95;;;12.40;99.90;;;;;;5065798;28;20029;-80
2022/10/26 05:50:12;;;;;;;7.38;5.25;;;12.40;99.90;;;;;;5070718;28;20450;-80
2022/10/26 05:52:42;;;;;;;10.05;5.50;;;12.40;99.90;;;;;;5077944;28;20023;-78
2022/10/26 05:55:09;;;;;;;8.40;4.80;;;12.40;99.90;;;;;;5065342;28;20049;-79
2022/10/26 05:57:36;;;;;;;12.45;5.40;;;12.40;99.90;;;;;;5070766;28;20165;-78
2022/10/26 06:00:22;;;;;;;8.80;4.95;;;12.40;99.90;;;;;;5061381;28;20029;-78
2022/10/26 06:03:03;;;;;;;9.50;4.78;;;12.40;99.90;;;;;;5072819;28;20041;-79
2022/10/26 06:05:33;;;;;;;7.32;4.53;;;12.40;99.90;;;;;;5074827;28;20421;-80
2022/10/26 06:08:01;;;;;;;8.10;4.13;;;12.40;99.90;;;;;;5074300;28;20020;-78
2022/10/26 06:10:27;;;;;;;10.02;4.43;;;12.40;99.90;;;;;;5068037;28;20066;-79
2022/10/26 06:12:53;;;;;;;14.48;4.68;;;12.40;99.90;;;;;;5081744;28;20020;-79
2022/10/26 06:15:20;;;;;;;18.20;6.05;;;12.40;99.90;;;;;;5101954;28;20027;-78
2022/10/26 06:18:07;;;;;;;9.68;5.00;;;12.40;99.90;;;;;;5092319;28;20146;-79
2022/10/26 06:21:01;;;;;;;18.50;6.13;;;12.40;99.90;;;;;;5082865;28;20025;-79
2022/10/26 06:23:46;;;;;;;11.60;4.68;;;12.40;99.90;;;;;;5078784;28;20598;-79
2022/10/26 06:26:17;;;;;;;9.55;4.55;;;12.40;99.90;;;;;;5081384;28;20028;-78
2022/10/26 06:28:55;;;;;;;8.93;3.95;;;12.50;99.90;;;;;;5090798;28;20551;-77
2022/10/26 06:31:24;;;;;;;11.75;5.00;;;12.50;99.90;;;;;;5080272;28;20027;-79
2022/10/26 06:33:55;;;;;;;8.45;3.95;;;12.50;99.90;;;;;;5074650;28;20361;-79
2022/10/26 06:36:26;;;;;;;5.93;4.25;;;12.50;99.90;;;;;;5073251;28;20048;-78
2022/10/26 06:38:54;;;;;;;;;;;12.50;99.90;;;;;;5063253;28;20060;-79
2022/10/26 06:41:21;;;;;;;7.97;3.63;;;12.50;99.90;;;;;;5102620;28;19925;-79
2022/10/26 06:43:47;;;;;;;7.15;3.80;;;12.60;99.90;;;;;;5089280;28;20036;-78
2022/10/26 06:46:24;;;;;;;8.57;4.80;;;12.50;99.90;;;;;;5093236;28;20285;-78
2022/10/26 06:49:16;;;;;;;11.35;4.20;;;12.50;99.90;;;;;;5092178;28;20054;-79
2022/10/26 06:52:04;;;;;;;8.38;4.45;;;12.60;99.90;;;;;;5084461;28;20028;-78
2022/10/26 06:54:53;;;;;;;5.07;4.10;;;12.50;99.90;;;;;;5073129;28;20025;-79
2022/10/26 06:57:24;;;;;;;4.95;3.85;;;12.50;99.90;;;;;;5065509;28;20108;-79
2022/10/26 06:59:53;;;;;;;6.75;4.65;;;12.50;99.90;;;;;;5075182;28;20041;-80
2022/10/26 07:02:19;;;;;;;9.25;4.80;;;12.50;99.90;;;;;;5073263;28;20036;-78
2022/10/26 07:04:45;;;;;;;8.30;4.53;;;12.50;99.90;;;;;;5072427;28;20031;-76
2022/10/26 07:07:23;;;;;;;8.25;4.85;;;12.50;99.90;;;;;;5072739;28;20147;-77
2022/10/26 07:09:49;;;;;;;6.30;4.45;;;12.50;99.90;;;;;;5073358;28;20377;-77
2022/10/26 07:12:14;;;;;;;10.23;4.28;;;12.50;99.90;;;;;;5073891;28;20025;-77
2022/10/26 07:14:40;;;;;;;9.93;4.40;;;12.40;99.90;;;;;;5055757;28;20033;-77
2022/10/26 07:17:07;;;;;;;9.38;4.72;;;12.50;99.90;;;;;;5075272;28;20088;-78
2022/10/26 07:19:32;;;;;;;7.57;5.05;;;12.50;99.90;;;;;;5079724;28;20031;-78
2022/10/26 07:21:59;;;;;;;9.55;4.55;;;12.50;99.90;;;;;;5068219;28;20013;-79
2022/10/26 07:24:25;;;;;;;5.97;4.82;;;12.50;99.90;;;;;;5072133;28;20023;-77
2022/10/26 07:26:54;;;;;;;5.18;4.53;;;12.50;99.90;;;;;;5073152;28;20380;-78
2022/10/26 07:29:20;;;;;;;6.93;4.13;;;12.60;99.90;;;;;;5075561;28;20078;-78
2022/10/26 07:31:46;;;;;;;9.18;4.82;;;12.60;99.90;;;;;;5074874;28;20033;-77
2022/10/26 07:34:12;;;;;;;10.68;4.78;;;12.80;99.90;;;;;;5073056;28;20115;-77
2022/10/26 07:36:38;;;;;;;7.15;3.90;;;12.70;99.90;;;;;;5091018;28;20020;-78
2022/10/26 07:39:05;;;;;;;10.15;4.75;;;12.70;99.90;;;;;;5080911;28;20016;-75
2022/10/26 07:41:30;;;;;;;8.02;4.97;;;12.90;99.90;;;;;;5094306;28;20032;-77
2022/10/26 07:43:56;;;;;;;11.45;5.28;;;12.90;99.90;;;;;;5097568;28;20047;-75
2022/10/26 07:46:22;;;;;;;9.00;4.38;;;12.90;99.90;;;;;;5092603;28;20024;-77
2022/10/26 07:48:49;;;;;;;8.95;4.30;;;13.00;99.90;;;;;;5089288;28;20024;-79
2022/10/26 07:51:15;;;;;;;9.18;4.65;;;13.00;99.90;;;;;;5089130;28;20533;-78
2022/10/26 07:53:40;;;;;;;4.80;3.92;;;13.00;99.90;;;;;;5094807;28;20055;-78
2022/10/26 07:56:07;;;;;;;6.90;4.93;;;13.10;99.90;;;;;;5092547;28;20028;-76
2022/10/26 07:58:32;;;;;;;7.00;4.22;;;13.20;99.90;;;;;;5085650;28;20027;-76
2022/10/26 08:01:08;;;;;;;5.03;4.40;;;13.20;99.90;;;;;;5068827;28;20065;-78
2022/10/26 08:03:34;;;;;;;7.75;4.20;;;13.30;99.90;;;;;;5057871;28;20029;-79
2022/10/26 08:05:59;;;;;;;8.38;4.95;;;13.30;99.90;;;;;;5075629;28;20100;-77
2022/10/26 08:08:25;;;;;;;14.32;5.10;;;13.30;99.90;;;;;;5089022;28;20062;-77
2022/10/26 08:10:51;;;;;;;7.18;4.70;;;13.30;99.90;;;;;;5093651;28;20021;-78
2022/10/26 08:13:17;;;;;;;12.55;4.03;;;13.40;99.90;;;;;;5093311;28;20032;-78
2022/10/26 08:15:42;;;;;;;9.15;4.78;;;13.40;99.90;;;;;;5099118;28;20084;-79
2022/10/26 08:18:08;;;;;;;9.40;5.53;;;13.50;99.90;;;;;;5077846;28;20035;-77
2022/10/26 08:20:33;;;;;;;7.43;5.20;;;13.50;99.90;;;;;;5096870;28;20017;-77
2022/10/26 08:23:00;;;;;;;5.88;4.72;;;13.60;99.90;;;;;;5090730;28;20040;-79
2022/10/26 08:25:26;;;;;;;9.05;5.82;;;13.70;99.90;;;;;;5087165;28;20484;-78
2022/10/26 08:27:53;;;;;;;6.18;4.93;;;13.80;99.90;;;;;;5068454;28;20489;-77
2022/10/26 08:30:21;;;;;;;6.57;4.78;;;13.80;99.90;;;;;;5071190;28;20027;-77
2022/10/26 08:32:47;;;;;;;7.65;5.30;;;13.90;99.90;;;;;;5074200;28;20025;-78
2022/10/26 08:35:12;;;;;;;5.68;5.03;;;14.00;99.90;;;;;;5073423;28;20556;-78
2022/10/26 08:37:38;;;;;;;5.60;4.95;;;14.10;99.90;;;;;;5071526;28;20135;-77
2022/10/26 08:40:04;;;;;;;8.60;4.32;;;14.10;99.90;;;;;;5083942;28;20056;-80
2022/10/26 08:42:36;;;;;;;9.75;4.88;;;14.20;99.90;;;;;;5089893;28;20021;-78
2022/10/26 08:45:10;;;;;;;13.65;6.00;;;14.30;99.90;;;;;;5091579;28;20103;-77
2022/10/26 08:47:45;;;;;;;9.68;4.45;;;14.30;99.90;;;;;;5092331;28;20020;-79
2022/10/26 08:50:30;;;;;;;9.43;4.57;;;14.40;99.90;;;;;;5089624;28;20103;-81
2022/10/26 08:53:08;;;;;;;10.10;4.47;;;14.50;99.90;;;;;;5073508;28;20047;-78
2022/10/26 08:55:45;;;;;;;9.80;4.07;;;14.60;99.90;;;;;;5069294;28;20484;-80
2022/10/26 08:58:16;;;;;;;5.10;4.18;;;14.70;99.90;;;;;;5068748;28;20024;-77
2022/10/26 09:00:46;;;;;;;6.63;3.85;;;14.80;99.90;;;;;;5071867;28;20032;-79
2022/10/26 09:03:15;;;;;;;12.63;4.20;;;14.90;99.90;;;;;;5072817;28;20033;-77
2022/10/26 09:06:02;;;;;;;6.15;3.70;;;14.90;99.90;;;;;;5068117;28;20052;-78
2022/10/26 09:08:41;;;;;;;14.05;4.25;;;15.10;99.90;;;;;;5069934;28;20060;-78
2022/10/26 09:11:09;;;;;;;5.40;3.13;;;15.20;99.90;;;;;;5074705;28;20055;-77
2022/10/26 09:14:28;;;;;;;9.73;3.88;;;15.30;99.90;;;;;;5081017;28;20017;-77
2022/10/26 09:17:21;;;;;;;6.97;3.58;;;15.40;99.90;;;;;;5073809;28;20028;-77
2022/10/26 09:20:05;;;;;;;8.75;3.72;;;15.50;99.90;;;;;;5073029;28;20024;-78
2022/10/26 09:23:20;;;;;;;12.98;3.67;;;15.60;99.90;;;;;;5079569;28;20052;-78
2022/10/26 09:25:58;;;;;;;7.78;4.03;;;15.60;99.90;;;;;;5037359;28;20032;-74
2022/10/26 09:28:27;;;;;;;8.05;4.15;;;15.60;99.90;;;;;;5077071;28;20048;-80
2022/10/26 09:30:54;;;;;;;7.03;3.70;;;15.60;99.90;;;;;;5091375;28;20021;-77
2022/10/26 09:33:23;;;;;;;6.70;3.53;;;15.70;99.90;;;;;;5094609;28;20028;-78
2022/10/26 09:36:02;;;;;;;8.27;3.40;;;15.80;99.90;;;;;;5092545;28;20082;-77
2022/10/26 09:38:48;;;;;;;10.15;3.83;;;15.90;99.90;;;;;;5079402;28;20021;-77
2022/10/26 09:41:36;;;;;;;7.32;3.92;;;15.90;99.90;;;;;;5095144;28;20035;-75
2022/10/26 09:44:12;;;;;;;6.50;3.47;;;15.90;99.90;;;;;;5073650;28;20032;-80
2022/10/26 09:46:54;;;;;;;3.95;3.50;;;16.00;99.90;;;;;;5086825;28;20084;-79
2022/10/26 09:49:22;;;;;;;4.93;4.03;;;16.10;99.90;;;;;;5077778;28;20395;-80
2022/10/26 09:51:48;;;;;;;6.97;3.92;;;16.20;99.90;;;;;;5073039;28;20062;-81
2022/10/26 09:54:16;;;;;;;8.27;3.53;;;16.20;99.90;;;;;;5073185;28;20028;-81
2022/10/26 09:56:45;;;;;;;10.05;4.43;;;16.40;99.90;;;;;;5083738;28;20036;-80
2022/10/26 09:59:11;;;;;;;8.88;4.40;;;16.50;99.90;;;;;;5083040;28;20055;-81
2022/10/26 10:01:37;;;;;;;6.43;3.28;;;16.60;99.90;;;;;;5073217;28;20104;-80
2022/10/26 10:04:11;;;;;;;7.07;3.95;;;16.70;99.90;;;;;;5073476;28;20182;-82
2022/10/26 10:06:38;;;;;;;7.15;3.78;;;16.80;99.90;;;;;;5085179;28;20020;-81
2022/10/26 10:09:10;;;;;;;4.90;3.58;;;16.80;99.90;;;;;;5086775;28;20067;-81
2022/10/26 10:11:48;;;;;;;9.55;3.53;;;16.90;99.90;;;;;;5074417;28;20027;-81
2022/10/26 10:14:16;;;;;;;8.02;4.78;;;17.00;99.90;;;;;;5064329;28;20106;-80
2022/10/26 10:16:53;;;;;;;8.27;3.65;;;17.00;99.90;;;;;;5055371;28;20043;-81
2022/10/26 10:19:26;;;;;;;6.65;3.50;;;17.10;99.90;;;;;;5056226;28;20024;-81
2022/10/26 10:21:55;;;;;;;8.70;3.67;;;17.20;99.90;;;;;;5080868;28;20084;-79
2022/10/26 10:24:23;;;;;;;7.25;3.33;;;17.20;99.90;;;;;;5083641;28;20032;-81
2022/10/26 10:26:59;;;;;;;9.23;3.25;;;17.30;99.90;;;;;;5077756;28;20395;-81
2022/10/26 10:29:33;;;;;;;12.18;4.15;;;17.40;99.90;;;;;;5061998;28;20020;-85
2022/10/26 10:32:02;;;;;;;7.15;3.10;;;17.40;99.90;;;;;;5073681;28;20067;-81
2022/10/26 10:34:32;;;;;;;8.15;3.30;;;17.40;99.90;;;;;;5091539;28;20024;-82
2022/10/26 10:37:00;;;;;;;7.93;3.22;;;17.40;99.90;;;;;;5074792;28;20480;-81
2022/10/26 10:39:34;;;;;;;4.93;3.70;;;17.40;99.90;;;;;;5067480;28;20108;-81
2022/10/26 10:42:01;;;;;;;7.40;4.10;;;17.40;99.90;;;;;;5072644;28;20036;-80
2022/10/26 10:44:28;;;;;;;7.03;4.03;;;17.30;99.90;;;;;;5074704;28;20067;-81
2022/10/26 10:47:05;;;;;;;6.45;3.88;;;17.30;99.90;;;;;;5076832;28;20025;-82
2022/10/26 10:49:37;;;;;;;8.13;3.60;;;17.30;99.90;;;;;;5083612;28;20092;-78
2022/10/26 10:52:03;;;;;;;6.78;4.05;;;17.20;99.90;;;;;;5081482;28;20080;-80
2022/10/26 10:54:32;;;;;;;7.85;3.40;;;17.30;99.90;;;;;;5085490;28;20028;-82
2022/10/26 10:57:19;;;;;;;7.95;3.35;;;17.30;99.90;;;;;;5074790;28;20426;-82
2022/10/26 10:59:47;;;;;;;7.15;3.20;;;17.40;99.90;;;;;;5073602;28;20028;-82
2022/10/26 11:02:45;;;;;;;6.07;3.35;;;17.30;99.90;;;;;;5074243;28;20024;-82
2022/10/26 11:05:58;;;;;;;6.18;3.47;;;17.40;99.90;;;;;;5075002;28;20153;-84
2022/10/26 11:08:42;;;;;;;4.28;3.42;;;17.50;99.90;;;;;;5083778;28;20060;-85
2022/10/26 11:11:11;;;;;;;7.88;3.30;;;17.60;99.90;;;;;;5095754;28;20027;-84
2022/10/26 11:13:43;;;;;;;6.28;3.47;;;17.70;99.90;;;;;;5101507;28;20095;-83
2022/10/26 11:16:17;;;;;;;6.85;3.05;;;17.70;99.90;;;;;;5098184;28;20030;-83
2022/10/26 11:18:51;;;;;;;5.70;3.30;;;17.70;99.90;;;;;;5102483;28;20039;-84
2022/10/26 11:21:25;;;;;;;7.28;2.72;;;17.70;99.90;;;;;;5101938;28;20076;-85
2022/10/26 11:24:10;;;;;;;8.68;3.30;;;17.80;99.90;;;;;;5099259;28;20052;-84
2022/10/26 11:26:54;;;;;;;5.25;3.08;;;17.90;99.90;;;;;;5105091;28;20048;-83
2022/10/26 11:29:45;;;;;;;11.75;3.05;;;18.00;99.90;;;;;;5080811;28;20027;-82
2022/10/26 11:32:27;;;;;;;7.60;3.50;;;18.10;99.90;;;;;;5098936;28;20024;-81
2022/10/26 11:35:02;;;;;;;5.28;2.80;;;18.10;99.90;;;;;;5089684;28;20040;-80
2022/10/26 11:37:43;;;;;;;9.30;3.00;;;18.10;99.90;;;;;;5062654;28;20084;-82
2022/10/26 11:40:44;;;;;;;8.48;3.10;;;18.10;99.90;;;;;;5095186;28;20346;-83
2022/10/26 11:43:29;;;;;;;10.15;2.65;;;18.10;99.90;;;;;;5075033;28;20043;-83
2022/10/26 11:46:12;;;;;;;4.35;2.80;;;18.20;99.90;;;;;;5075939;28;20111;-85
2022/10/26 11:48:56;;;;;;;8.52;3.22;;;18.20;99.90;;;;;;5063998;28;20028;-83
2022/10/26 11:51:52;;;;;;;2.80;2.20;;;18.20;99.90;;;;;;5076062;28;20038;-84
2022/10/26 11:54:41;;;;;;;8.40;2.85;;;18.20;99.90;;;;;;5076673;28;20492;-83
2022/10/26 11:57:09;;;;;;;12.30;2.67;;;18.30;99.90;;;;;;5094109;28;20005;-82
2022/10/26 11:59:44;;;;;;;7.32;2.50;;;18.40;99.90;;;;;;5078880;28;20021;-84
2022/10/26 12:02:13;;;;;;;7.30;2.90;;;18.40;99.90;;;;;;5075611;28;20502;-81
2022/10/26 12:04:42;;;;;;;4.40;3.00;;;18.40;99.90;;;;;;5075804;28;20028;-82
2022/10/26 12:07:19;;;;;;;5.25;2.58;;;18.30;99.90;;;;;;5076367;28;20090;-82
2022/10/26 12:09:44;;;;;;;6.75;3.10;;;18.50;99.90;;;;;;5087442;28;20467;-82
2022/10/26 12:12:21;;;;;;;6.22;3.58;;;18.60;99.90;;;;;;5092538;28;20024;-83
2022/10/26 12:15:03;;;;;;;7.78;3.30;;;18.50;99.90;;;;;;5094357;28;20391;-82
2022/10/26 12:17:38;;;;;;;7.05;3.20;;;18.50;99.90;;;;;;5093428;28;20021;-84
2022/10/26 12:20:32;;;;;;;6.07;2.80;;;18.50;99.90;;;;;;5094597;28;20032;-82
2022/10/26 12:22:58;;;;;;;7.22;3.08;;;18.50;99.90;;;;;;5074076;28;20041;-81
2022/10/26 12:25:23;;;;;;;8.38;3.22;;;18.60;99.90;;;;;;5075211;28;20577;-82
2022/10/26 12:27:53;;;;;;;7.95;3.15;;;18.70;99.90;;;;;;5071552;28;20016;-81
2022/10/26 12:30:18;;;;;;;4.90;3.15;;;18.60;99.90;;;;;;5076785;28;20040;-82
2022/10/26 12:32:49;;;;;;;7.35;3.47;;;18.70;99.90;;;;;;5076913;28;20093;-81
2022/10/26 12:35:33;;;;;;;;;;;18.80;99.90;;;;;;5070407;28;20032;-80
2022/10/26 12:38:00;;;;;;;10.98;2.92;;;18.80;99.90;;;;;;5080106;28;19958;-80
2022/10/26 12:40:37;;;;;;;6.95;3.60;;;18.80;99.90;;;;;;5075564;28;20108;-81
2022/10/26 12:43:12;;;;;;;6.47;3.10;;;18.90;99.90;;;;;;5075678;28;20036;-82
2022/10/26 12:45:39;;;;;;;11.05;3.55;;;18.90;99.90;;;;;;5075140;28;20058;-80
2022/10/26 12:48:24;;;;;;;8.48;2.92;;;19.00;99.90;;;;;;5057833;28;20077;-82
2022/10/26 12:50:51;;;;;;;4.43;2.38;;;19.10;99.90;;;;;;5067511;28;20037;-81
2022/10/26 12:53:19;;;;;;;5.82;2.28;;;19.10;99.90;;;;;;5072823;28;20021;-80
2022/10/26 12:55:45;;;;;;;4.68;2.67;;;19.20;99.90;;;;;;5073497;28;20032;-80
2022/10/26 12:58:21;;;;;;;2.60;1.90;;;19.20;99.90;;;;;;5072969;28;20021;-80
2022/10/26 13:00:59;;;;;;;6.35;2.33;;;19.30;99.90;;;;;;5071720;28;20020;-80
2022/10/26 13:03:31;;;;;;;6.82;2.45;;;19.40;99.90;;;;;;5071802;28;20036;-80
2022/10/26 13:06:11;;;;;;;6.25;2.50;;;19.40;99.90;;;;;;5074475;28;20021;-82